Altair — 9LC2000 — position and weather

sailwx.info

Track history (hours):
 
Tides and Currents Weather Stations Pressure Air Temp Water Temp Dewpoint Dewpoint Depression Visibility Wind Speed Wind Dir Waves Ship Positions

Altair

Last reported at 2017-Dec-27 03:03 UTC. Time now 2018-Jan-22 16:02 UTC.
Position N 45°30' E 036°45'.
Warning: this ship's position is 26 days out of date.

Length 108 m; draft 2.7 m.

Type: Cargo ship. MMSI: 667021000.

Date/timePositionNaut miles runAvg speedWind from/ knotsBaromVisibWave heightAir tempDewpointWater temp
2017-Dec-27 03:03N 45°30' E 036°45'1 8.2
2017-Dec-27 02:56N 45°29' E 036°44'3 8.3
2017-Dec-27 02:30N 45°26' E 036°42'4 8.4
2017-Dec-27 02:00N 45°22' E 036°40'4 8.2
2017-Dec-27 01:30N 45°20' E 036°35'4 9.0
2017-Dec-27 01:00N 45°18' E 036°29'5 6.2
2017-Dec-27 00:12N 45°13' E 036°29'  
2017-Dec-24 15:23N 41°01' E 028°60'3 5.6
2017-Dec-24 14:52N 40°59' E 028°60'2 4.8
2017-Dec-24 14:28N 40°57' E 028°59'2 4.5
2017-Dec-24 14:00N 40°56' E 028°56'2 0.8
2017-Dec-24 11:14N 40°58' E 028°55'0 0.0
2017-Dec-24 10:48N 40°58' E 028°55'0 0.0
2017-Dec-24 10:17N 40°58' E 028°55'0 0.1
2017-Dec-24 09:44N 40°58' E 028°55'0 0.0
2017-Dec-24 06:53N 40°58' E 028°55'0 0.0
2017-Dec-24 06:05N 40°58' E 028°55'0 0.1
2017-Dec-24 05:59N 40°58' E 028°55'0 0.0
2017-Dec-24 05:27N 40°58' E 028°55'2 5.2
2017-Dec-24 05:00N 40°56' E 028°57'4 7.4
2017-Dec-24 04:30N 40°53' E 028°55'4 8.3
2017-Dec-24 04:00N 40°50' E 028°51'  
Track history (hours):
 
Tides and Currents Weather Stations Pressure Air Temp Water Temp Dewpoint Dewpoint Depression Visibility Wind Speed Wind Dir Waves Ship Positions

Altair

Last reported at 2017-Dec-27 03:03 UTC. Time now 2018-Jan-22 16:02 UTC.
Position N 45°30' E 036°45'.
Warning: this ship's position is 26 days out of date.

Length 108 m; draft 2.7 m.

Type: Cargo ship. MMSI: 667021000.

Date/timePositionNaut miles runAvg speedWind from/ knotsBaromVisibWave heightAir tempDewpointWater temp
2017-Dec-27 03:03N 45°30' E 036°45'1 8.2
2017-Dec-27 02:56N 45°29' E 036°44'3 8.3
2017-Dec-27 02:30N 45°26' E 036°42'4 8.4
2017-Dec-27 02:00N 45°22' E 036°40'4 8.2
2017-Dec-27 01:30N 45°20' E 036°35'4 9.0
2017-Dec-27 01:00N 45°18' E 036°29'5 6.2
2017-Dec-27 00:12N 45°13' E 036°29'  
2017-Dec-24 15:23N 41°01' E 028°60'3 5.6
2017-Dec-24 14:52N 40°59' E 028°60'2 4.8
2017-Dec-24 14:28N 40°57' E 028°59'2 4.5
2017-Dec-24 14:00N 40°56' E 028°56'2 0.8
2017-Dec-24 11:14N 40°58' E 028°55'0 0.0
2017-Dec-24 10:48N 40°58' E 028°55'0 0.0
2017-Dec-24 10:17N 40°58' E 028°55'0 0.1
2017-Dec-24 09:44N 40°58' E 028°55'0 0.0
2017-Dec-24 06:53N 40°58' E 028°55'0 0.0
2017-Dec-24 06:05N 40°58' E 028°55'0 0.1
2017-Dec-24 05:59N 40°58' E 028°55'0 0.0
2017-Dec-24 05:27N 40°58' E 028°55'2 5.2
2017-Dec-24 05:00N 40°56' E 028°57'4 7.4
2017-Dec-24 04:30N 40°53' E 028°55'4 8.3
2017-Dec-24 04:00N 40°50' E 028°51'  

Dump ship's entire track history